This is the latest recevied weather packets stored in our database for station/object IU1OLT-7. If no packets are shown the sender has not sent any weather packets the latest 10 day(s).
| Time | Temp. | Humidity | Pressure | Rain* | Wind** | Luminosity | Snow |
|---|---|---|---|---|---|---|---|
| 1777117829 | 20.56° C | 49% | 1019.4 hPa | - | - | - | - |
| 1777116929 | 22.22° C | 40% | 1019.4 hPa | - | - | - | - |
| 1777116029 | 22.78° C | 36% | 1019.4 hPa | - | - | - | - |
| 1777115181 | 22.78° C | 36% | 1019.5 hPa | - | - | - | - |
| 1777115129 | 22.78° C | 36% | 1019.5 hPa | - | - | - | - |
| 1777114314 | 21.11° C | 36% | 1019.6 hPa | - | - | - | - |
| 1777114229 | 21.11° C | 36% | 1019.6 hPa | - | - | - | - |
| 1777113329 | 22.22° C | 31% | 1019.5 hPa | - | - | - | - |
| 1777112427 | 21.11° C | 32% | 1019.6 hPa | - | - | - | - |
| 1777111527 | 20° C | 31% | 1019.7 hPa | - | - | - | - |
| 1777110627 | 20° C | 32% | 1019.7 hPa | - | - | - | - |
| 1777109727 | 20.56° C | 29% | 1019.7 hPa | - | - | - | - |
| 1777108827 | 18.33° C | 30% | 1019.7 hPa | - | - | - | - |
| 1777107959 | 19.44° C | 27% | 1019.6 hPa | - | - | - | - |
| 1777107927 | 19.44° C | 27% | 1019.6 hPa | - | - | - | - |
| 1777107027 | 18.33° C | 29% | 1019.6 hPa | - | - | - | - |
| 1777106127 | 18.33° C | 28% | 1019.7 hPa | - | - | - | - |
| 1777105227 | 19.44° C | 26% | 1019.6 hPa | - | - | - | - |
| 1777104327 | 18.89° C | 26% | 1019.6 hPa | - | - | - | - |
| 1777103461 | 18.89° C | 25% | 1019.5 hPa | - | - | - | - |
| 1777103427 | 18.89° C | 25% | 1019.5 hPa | - | - | - | - |
| 1777102574 | 17.78° C | 25% | 1019.5 hPa | - | - | - | - |
| 1777102527 | 17.78° C | 25% | 1019.5 hPa | - | - | - | - |
| 1777101627 | 16.67° C | 25% | 1019.5 hPa | - | - | - | - |
| 1777100727 | 17.22° C | 21% | 1019.5 hPa | - | - | - | - |
* Rain since midnight (hover to see other rain measurements)
** Current wind speed in m/s (hover to see current wind gust speed)